ADDS METAR Data INFO
IDs: Format: Raw Decoded Include TAF

Data at: 1249 UTC 19 Oct 2017

KRCV 191230Z AUTO 28010KT 10SM CLR 03/M10 A3028 RMK AO2 T00251096
KRCV 191210Z AUTO 26012KT 10SM CLR 03/M09 A3028 RMK AO2 T00271095
KRCV 191150Z AUTO 26014KT 10SM CLR 04/M10 A3028 RMK AO2 LTG DSNT W T00371096 10052 20024
KRCV 191130Z AUTO 26010KT 10SM CLR 03/M10 A3028 RMK AO2 T00331097
KRCV 191110Z AUTO 26012KT 10SM CLR 03/M10 A3028 RMK AO2 T00311097
KRCV 191050Z AUTO 27011KT 10SM CLR 03/M10 A3028 RMK AO2 T00311096
KRCV 191030Z AUTO 26013KT 10SM CLR 04/M10 A3028 RMK AO2 T00401097
KRCV 191010Z AUTO 27013KT 10SM CLR 03/M10 A3028 RMK AO2 T00321096
KRCV 190950Z AUTO 27011KT 10SM CLR 03/M10 A3029 RMK AO2 T00251098
KRCV 190930Z AUTO 27013KT 10SM CLR 03/M10 A3029 RMK AO2 T00281100
KRCV 190910Z AUTO 27013KT 10SM CLR 03/M09 A3029 RMK AO2 T00321095
KRCV 190850Z AUTO 27011KT 10SM CLR 03/M10 A3030 RMK AO2 T00321100
KRCV 190830Z AUTO 27014KT 10SM CLR 03/M10 A3030 RMK AO2 T00331102
KRCV 190810Z AUTO 27012KT 10SM CLR 04/M10 A3030 RMK AO2 T00421099
KRCV 190750Z AUTO 26012KT 10SM CLR 03/M10 A3030 RMK AO2 T00341099
KRCV 190730Z AUTO 26011KT 10SM CLR 04/M10 A3031 RMK AO2 T00371099
KRCV 190710Z AUTO 27006KT 10SM CLR 05/M10 A3031 RMK AO2 T00511099
KRCV 190650Z AUTO 31005KT 10SM CLR 04/M10 A3031 RMK AO2 T00441099 401920021
KRCV 190630Z AUTO 31004KT 10SM CLR 05/M10 A3030 RMK AO2 T00461100
KRCV 190610Z AUTO 25003KT 10SM CLR 05/M10 A3031 RMK AO2 T00451096
KRCV 190545Z AUTO 27007KT 10SM CLR 05/M10 A3031 RMK AO2 T00451096
KRCV 190525Z AUTO 27011KT 10SM CLR 05/M09 A3031 RMK AO2 T00471094
KRCV 190505Z AUTO 26010KT 10SM CLR 03/M10 A3031 RMK AO2 T00281096
KRCV 190450Z AUTO 26012KT 10SM CLR 04/M09 A3031 RMK AO2 T00351086
KRCV 190430Z AUTO 26009KT 10SM CLR 04/M09 A3032 RMK AO2 T00381090
KRCV 190410Z AUTO 26011KT 10SM CLR 04/M09 A3031 RMK AO2 T00371095
KRCV 190350Z AUTO 26010KT 10SM CLR 04/M09 A3032 RMK AO2 T00411093
KRCV 190330Z AUTO 26009KT 10SM CLR 05/M09 A3031 RMK AO2 T00471094
KRCV 190310Z AUTO 25007KT 10SM CLR 06/M09 A3031 RMK AO2 T00571095
KRCV 190250Z AUTO 26010KT 10SM CLR 06/M09 A3031 RMK AO2 T00571091
KRCV 190230Z AUTO 26008KT 10SM CLR 07/M09 A3031 RMK AO2 T00661091
KRCV 190210Z AUTO 25008KT 10SM CLR 09/M10 A3031 RMK AO2 T00851096
KRCV 190110Z AUTO 00000KT 10SM CLR 10/M09 A3030 RMK AO2 T00951095
KRCV 190050Z AUTO 00000KT 10SM CLR 11/M10 A3029 RMK AO2 T01091098
KRCV 190030Z AUTO 00000KT 10SM CLR 10/M10 A3029 RMK AO2 T01031096
KRCV 190010Z AUTO 06004KT 10SM CLR 14/M09 A3030 RMK AO2 T01381092
KRCV 182350Z AUTO 06005KT 10SM CLR 16/M09 A3029 RMK AO2 T01601089 10192 20141
KRCV 182325Z AUTO 09006KT 10SM CLR 18/M10 A3029 RMK AO2 T01791102
KRCV 182310Z AUTO 10005KT 10SM CLR 18/M10 A3028 RMK AO2 T01811105
KRCV 182250Z AUTO 10006KT 10SM CLR 18/M11 A3028 RMK AO2 T01831112
KRCV 182230Z AUTO 13007KT 10SM CLR 19/M11 A3029 RMK AO2 T01881114
KRCV 182210Z AUTO 15004KT 10SM CLR 19/M11 A3030 RMK AO2 T01911115
KRCV 182150Z AUTO 00000KT 10SM CLR 19/M12 A3030 RMK AO2 T01891117
KRCV 182130Z AUTO 00000KT 10SM CLR 19/M12 A3030 RMK AO2 T01861118
KRCV 182110Z AUTO 25005KT 10SM CLR 19/M11 A3030 RMK AO2 T01851114
KRCV 182050Z AUTO 00000KT 10SM CLR 18/M11 A3031 RMK AO2 T01841107
KRCV 182010Z AUTO 26003KT 10SM CLR 17/M12 A3033 RMK AO2 T01651124
KRCV 181945Z AUTO 26003KT 10SM CLR 16/M13 A3033 RMK AO2 T01631131
KRCV 181925Z AUTO 00000KT 10SM CLR 16/M12 A3035 RMK AO2 T01591118
KRCV 181910Z AUTO 00000KT 10SM CLR 16/M11 A3036 RMK AO2 T01581115
KRCV 181850Z AUTO 16003KT 10SM CLR 16/M11 A3037 RMK AO2 T01561114
KRCV 181830Z AUTO 10004KT 10SM CLR 15/M12 A3037 RMK AO2 T01501116
KRCV 181810Z AUTO 00000KT 10SM CLR 15/M11 A3038 RMK AO2 T01491112
KRCV 181750Z AUTO 00000KT 10SM CLR 14/M11 A3038 RMK AO2 T01371114 10140 20021
KRCV 181730Z AUTO 00000KT 10SM CLR 14/M11 A3038 RMK AO2 T01381111
KRCV 181710Z AUTO 00000KT 10SM CLR 12/M10 A3038 RMK AO2 T01241101
KRCV 181650Z AUTO 00000KT 10SM CLR 12/M11 A3039 RMK AO2 T01151107
KRCV 181630Z AUTO 00000KT 10SM CLR 11/M11 A3039 RMK AO2 T01051106
KRCV 181610Z AUTO 00000KT 10SM CLR 10/M10 A3039 RMK AO2 T01001101
KRCV 181550Z AUTO 00000KT 10SM CLR 09/M10 A3038 RMK AO2 T00871103
KRCV 181530Z AUTO 28006KT 10SM CLR 08/M10 A3039 RMK AO2 T00751098
KRCV 181510Z AUTO 28009KT 10SM CLR 07/M10 A3038 RMK AO2 T00651098
KRCV 181450Z AUTO 29007KT 10SM CLR 06/M10 A3038 RMK AO2 T00551100
KRCV 181430Z AUTO 28008KT 10SM CLR 05/M10 A3036 RMK AO2 T00471104
KRCV 181410Z AUTO 26008G15KT 10SM CLR 05/M11 A3036 RMK AO2 T00451107
KRCV 181350Z AUTO 28011KT 10SM CLR 03/M11 A3035 RMK AO2 T00281106
KRCV 181330Z AUTO 27011KT 10SM CLR 03/M11 A3035 RMK AO2 T00311110
KRCV 181310Z AUTO 26012KT 10SM CLR 03/M11 A3034 RMK AO2 T00311107
KRCV 181250Z AUTO 27011G14KT 10SM CLR 03/M11 A3034 RMK AO2 T00311108
KRCV 181230Z AUTO 29008KT 10SM CLR 03/M11 A3033 RMK AO2 T00251107
KRCV 181210Z AUTO 24008KT 10SM CLR 02/M10 A3033 RMK AO2 T00211105
KRCV 181150Z AUTO 27016KT 10SM CLR 04/M11 A3032 RMK AO2 T00371106 10070 20029
KRCV 181130Z AUTO 27013KT 10SM CLR 03/M10 A3032 RMK AO2 T00321103
KRCV 181110Z AUTO 26011KT 10SM CLR 04/M10 A3031 RMK AO2 T00371104
KRCV 181045Z AUTO 26011KT 10SM CLR 03/M10 A3031 RMK AO2 T00311103
KRCV 181030Z AUTO 25012KT 10SM CLR 04/M10 A3031 RMK AO2 T00401103
KRCV 181010Z AUTO 26011KT 10SM CLR 04/M10 A3032 RMK AO2 T00421102
KRCV 180950Z AUTO 25012KT 10SM CLR 04/M10 A3032 RMK AO2 T00391102
KRCV 180930Z AUTO 26012KT 10SM CLR 04/M10 A3032 RMK AO2 T00361100
KRCV 180910Z AUTO 27012G15KT 10SM CLR 04/M10 A3032 RMK AO2 T00371101
KRCV 180850Z AUTO 26012KT 10SM CLR 05/M10 A3033 RMK AO2 T00451100
KRCV 180830Z AUTO 26010KT 10SM CLR 06/M10 A3033 RMK AO2 T00571100
KRCV 180810Z AUTO 00000KT 10SM CLR 06/M10 A3033 RMK AO2 T00581098
KRCV 180750Z AUTO 27010KT 10SM CLR 06/M10 A3033 RMK AO2 T00581096
KRCV 180730Z AUTO 27009KT 10SM CLR 05/M09 A3033 RMK AO2 T00511095
KRCV 180710Z AUTO 28008KT 10SM CLR 06/M09 A3034 RMK AO2 T00581095
KRCV 180650Z AUTO 27005KT 10SM CLR 06/M09 A3033 RMK AO2 T00581092 401950011
KRCV 180630Z AUTO 25011G14KT 10SM CLR 07/M09 A3033 RMK AO2 T00671095
KRCV 180610Z AUTO 28005KT 10SM CLR 06/M09 A3034 RMK AO2 T00601090
KRCV 180550Z AUTO 23009KT 10SM CLR 06/M09 A3034 RMK AO2 T00611087 10155 20043
KRCV 180530Z AUTO 27008KT 10SM CLR 06/M09 A3034 RMK AO2 T00571089
KRCV 180510Z AUTO 25008KT 10SM CLR 06/M09 A3034 RMK AO2 T00561090
KRCV 180450Z AUTO 25010KT 10SM CLR 07/M09 A3034 RMK AO2 T00691088
KRCV 180430Z AUTO 26008KT 10SM CLR 06/M09 A3035 RMK AO2 T00621090
KRCV 180410Z AUTO 27009KT 10SM CLR 07/M09 A3034 RMK AO2 T00651090
KRCV 180350Z AUTO 27010KT 10SM CLR 07/M09 A3034 RMK AO2 T00691090
KRCV 180330Z AUTO 26011KT 10SM CLR 04/M09 A3034 RMK AO2 T00441095
KRCV 180310Z AUTO 26010KT 10SM CLR 05/M09 A3033 RMK AO2 T00511088
KRCV 180250Z AUTO 26011KT 10SM CLR 06/M09 A3033 RMK AO2 T00601090
KRCV 180230Z AUTO 26010KT 10SM CLR 07/M08 A3033 RMK AO2 T00711082
KRCV 180210Z AUTO 26011KT 10SM CLR 07/M08 A3033 RMK AO2 T00711085
KRCV 180145Z AUTO 26008KT 10SM CLR 08/M07 A3033 RMK AO2 T00841074
KRCV 180130Z AUTO 26008KT 10SM CLR 07/M09 A3032 RMK AO2 T00721093
KRCV 180110Z AUTO 30003KT 10SM CLR 07/M09 A3032 RMK AO2 T00701090